Time;durP1;ratioP1;P1;durP2;ratioP2;P2;SDS_P1;SDS_P2;PMS_P1;PMS_P2;Temp;Humidity;BMP_temperature;BMP_pressure;BME280_temperature;BME280_humidity;BME280_pressure;Samples;Min_cycle;Max_cycle;Signal;HPM_P1;HPM_P2
2024/04/13 00:02:00;;;;;;;6.50;2.60;;;11.50;99.90;;;;;;5505102;25;20237;-59
2024/04/13 00:04:25;;;;;;;4.60;2.57;;;11.50;99.90;;;;;;5504768;26;20233;-60
2024/04/13 00:06:56;;;;;;;5.17;2.57;;;11.40;99.90;;;;;;5509283;26;20267;-59
2024/04/13 00:09:22;;;;;;;4.53;2.77;;;11.40;99.90;;;;;;5510899;26;20269;-59
2024/04/13 00:11:50;;;;;;;6.23;2.40;;;11.40;99.90;;;;;;5507379;26;20236;-60
2024/04/13 00:14:16;;;;;;;5.50;2.80;;;11.40;99.90;;;;;;5531846;20;20228;-61
2024/04/13 00:16:44;;;;;;;4.67;2.80;;;11.40;99.90;;;;;;5353938;26;20287;-62
2024/04/13 00:19:11;;;;;;;5.13;3.00;;;11.40;99.90;;;;;;5355100;26;20234;-62
2024/04/13 00:21:38;;;;;;;9.07;2.57;;;11.40;99.90;;;;;;5356035;26;20319;-60
2024/04/13 00:24:10;;;;;;;5.13;2.60;;;11.30;99.90;;;;;;5362948;26;20236;-62
2024/04/13 00:26:35;;;;;;;5.03;2.40;;;11.30;99.90;;;;;;5362552;26;20282;-62
2024/04/13 00:29:07;;;;;;;6.50;2.60;;;11.10;99.90;;;;;;5354969;26;20585;-62
2024/04/13 00:31:33;;;;;;;8.47;2.57;;;11.00;99.90;;;;;;5355216;26;20233;-62
2024/04/13 00:34:01;;;;;;;4.87;2.53;;;11.10;99.90;;;;;;5362721;26;20274;-62
2024/04/13 00:36:27;;;;;;;5.80;2.47;;;11.10;99.90;;;;;;5362792;26;20291;-63
2024/04/13 00:38:56;;;;;;;2.90;2.10;;;11.20;99.90;;;;;;5356777;26;20773;-63
2024/04/13 00:41:24;;;;;;;4.53;2.20;;;11.20;99.90;;;;;;5355306;26;20279;-63
2024/04/13 00:43:52;;;;;;;5.17;2.13;;;11.20;99.90;;;;;;5359668;26;20280;-63
2024/04/13 00:46:23;;;;;;;4.20;2.10;;;11.10;99.90;;;;;;5362704;26;20251;-63
2024/04/13 00:48:53;;;;;;;4.97;2.33;;;11.10;99.90;;;;;;5357401;26;20296;-62
2024/04/13 00:51:23;;;;;;;4.83;2.40;;;11.10;99.90;;;;;;5354988;26;20297;-63
2024/04/13 00:53:51;;;;;;;4.63;2.33;;;11.10;99.90;;;;;;5359140;26;20275;-62
2024/04/13 00:56:18;;;;;;;4.27;2.30;;;11.10;99.90;;;;;;5368190;26;20719;-62
2024/04/13 00:58:51;;;;;;;5.33;2.50;;;11.00;99.90;;;;;;5357464;26;20734;-62
2024/04/13 01:01:16;;;;;;;3.50;2.37;;;11.00;99.90;;;;;;5362389;26;20278;-62
2024/04/13 01:03:46;;;;;;;2.20;1.87;;;11.00;99.90;;;;;;5360454;26;20240;-62
2024/04/13 01:06:13;;;;;;;3.80;2.80;;;10.90;99.90;;;;;;5354855;26;20241;-62
2024/04/13 01:08:41;;;;;;;5.23;2.53;;;10.90;99.90;;;;;;5356030;26;20279;-64
2024/04/13 01:11:07;;;;;;;4.83;2.90;;;10.80;99.90;;;;;;5362010;26;20232;-62
2024/04/13 01:13:38;;;;;;;4.20;2.63;;;10.70;99.90;;;;;;5362743;26;20239;-63
2024/04/13 01:16:07;;;;;;;4.57;2.43;;;10.70;99.90;;;;;;5308921;26;20237;-63
2024/04/13 01:18:36;;;;;;;10.30;6.57;;;10.70;99.90;;;;;;5354817;26;20237;-63
2024/04/13 01:21:02;;;;;;;5.10;2.27;;;10.70;99.90;;;;;;5307667;26;20877;-63
2024/04/13 01:23:32;;;;;;;3.20;1.90;;;10.80;99.90;;;;;;5354806;26;20621;-63
2024/04/13 01:26:01;;;;;;;5.80;2.20;;;10.90;99.90;;;;;;5361571;26;20299;-63
2024/04/13 01:28:34;;;;;;;3.87;2.30;;;10.90;99.90;;;;;;5362239;26;20247;-63
2024/04/13 01:31:01;;;;;;;3.30;2.20;;;10.90;99.90;;;;;;5354543;26;20334;-63
2024/04/13 01:33:29;;;;;;;6.30;2.67;;;10.80;99.90;;;;;;5354427;26;20735;-63
2024/04/13 01:35:57;;;;;;;2.80;2.00;;;10.80;99.90;;;;;;5360036;26;20738;-63
2024/04/13 01:38:25;;;;;;;2.80;2.00;;;10.90;99.90;;;;;;5362284;26;20236;-63
2024/04/13 01:40:51;;;;;;;3.60;2.30;;;10.90;99.90;;;;;;5357391;26;20236;-63
2024/04/13 01:43:22;;;;;;;2.43;2.03;;;10.90;99.90;;;;;;5354527;26;20292;-63
2024/04/13 01:45:50;;;;;;;4.80;2.27;;;10.90;99.90;;;;;;5357464;26;20249;-64
2024/04/13 01:48:18;;;;;;;6.93;2.10;;;10.90;99.90;;;;;;5361986;26;20735;-63
2024/04/13 01:50:44;;;;;;;3.53;1.97;;;10.90;99.90;;;;;;5359219;26;20270;-63
2024/04/13 01:53:13;;;;;;;5.87;2.40;;;10.90;99.90;;;;;;5354213;26;20237;-63
2024/04/13 01:55:39;;;;;;;4.40;2.30;;;10.90;99.90;;;;;;5354595;26;20610;-63
2024/04/13 01:58:07;;;;;;;5.43;2.20;;;10.80;99.90;;;;;;5362041;26;20236;-63
2024/04/13 02:00:37;;;;;;;3.97;2.30;;;10.80;99.90;;;;;;5361488;26;20227;-63
2024/04/13 02:03:06;;;;;;;4.60;2.27;;;10.70;99.90;;;;;;5329392;26;20335;-63
2024/04/13 02:05:34;;;;;;;4.27;2.30;;;10.60;99.90;;;;;;5361748;26;20232;-63
2024/04/13 02:08:03;;;;;;;4.73;2.77;;;10.60;99.90;;;;;;5354688;26;20268;-63
2024/04/13 02:10:28;;;;;;;5.00;2.57;;;10.60;99.90;;;;;;5353628;26;20233;-63
2024/04/13 02:12:57;;;;;;;3.77;2.40;;;10.60;99.90;;;;;;5358945;26;20288;-63
2024/04/13 02:15:23;;;;;;;4.07;2.40;;;10.60;99.90;;;;;;5361387;26;20239;-62
2024/04/13 02:17:53;;;;;;;3.87;2.30;;;10.60;99.90;;;;;;5358235;26;20267;-64
2024/04/13 02:20:19;;;;;;;4.70;2.43;;;10.60;99.90;;;;;;5353422;26;20275;-63
2024/04/13 02:22:47;;;;;;;2.93;2.30;;;10.50;99.90;;;;;;5356298;26;20233;-63
2024/04/13 02:25:14;;;;;;;4.33;2.50;;;10.50;99.90;;;;;;5361371;26;20243;-63
2024/04/13 02:27:42;;;;;;;6.47;2.20;;;10.50;99.90;;;;;;5360914;26;20729;-63
2024/04/13 02:30:09;;;;;;;3.50;2.00;;;10.50;99.90;;;;;;5353513;26;20271;-63
2024/04/13 02:32:37;;;;;;;3.97;2.10;;;10.40;99.90;;;;;;5353607;26;20642;-63
2024/04/13 02:35:07;;;;;;;6.33;2.70;;;10.30;99.90;;;;;;5361103;26;20283;-63
2024/04/13 02:37:35;;;;;;;3.30;2.80;;;10.30;99.90;;;;;;5361362;26;20266;-63
2024/04/13 02:40:02;;;;;;;4.90;2.70;;;10.40;99.90;;;;;;5353766;26;20575;-63
2024/04/13 02:42:30;;;;;;;3.50;2.70;;;10.40;99.90;;;;;;5353441;26;20233;-63
2024/04/13 02:44:56;;;;;;;7.50;2.60;;;10.40;99.90;;;;;;5358750;26;20237;-63
2024/04/13 02:47:25;;;;;;;5.47;2.60;;;10.40;99.90;;;;;;5361074;26;20736;-63
2024/04/13 02:49:51;;;;;;;4.03;2.43;;;10.40;99.90;;;;;;5356853;26;20232;-63
2024/04/13 02:52:22;;;;;;;4.93;2.67;;;10.40;99.90;;;;;;5353166;26;20301;-63
2024/04/13 02:54:48;;;;;;;3.57;2.47;;;10.40;99.90;;;;;;5355848;26;20249;-63
2024/04/13 02:57:17;;;;;;;5.57;2.57;;;10.40;99.90;;;;;;5360898;26;20559;-63
2024/04/13 02:59:44;;;;;;;4.27;2.20;;;10.40;99.90;;;;;;5359243;26;20232;-63
2024/04/13 03:02:13;;;;;;;5.77;2.27;;;10.50;99.90;;;;;;5353118;26;20265;-63
2024/04/13 03:04:39;;;;;;;3.60;2.30;;;10.50;99.90;;;;;;5352927;26;20241;-63
2024/04/13 03:07:07;;;;;;;7.70;2.60;;;10.50;99.90;;;;;;5328219;26;20232;-63
2024/04/13 03:09:35;;;;;;;4.87;2.33;;;10.50;99.90;;;;;;5360493;26;20232;-63
2024/04/13 03:12:04;;;;;;;6.23;2.40;;;10.50;99.90;;;;;;5355068;26;20267;-63
2024/04/13 03:14:30;;;;;;;6.00;2.37;;;10.50;99.90;;;;;;5356542;26;20233;-63
2024/04/13 03:16:58;;;;;;;4.50;2.20;;;10.60;99.90;;;;;;5361813;26;20758;-63
2024/04/13 03:19:24;;;;;;;4.20;2.30;;;10.60;99.90;;;;;;5363628;26;20275;-63
2024/04/13 03:21:52;;;;;;;4.47;2.43;;;10.60;99.90;;;;;;5360919;26;20572;-62
2024/04/13 03:24:18;;;;;;;5.90;2.20;;;10.70;99.90;;;;;;5356716;26;20279;-64
2024/04/13 03:26:49;;;;;;;5.87;2.70;;;10.70;99.90;;;;;;5357712;26;20714;-63
2024/04/13 03:29:15;;;;;;;3.70;2.40;;;10.70;99.90;;;;;;5363436;26;20267;-63
2024/04/13 03:31:44;;;;;;;6.07;2.83;;;10.80;99.90;;;;;;5363290;26;20236;-65
2024/04/13 03:34:09;;;;;;;3.87;2.30;;;10.80;99.90;;;;;;5356281;26;20233;-60
2024/04/13 03:36:40;;;;;;;4.53;2.70;;;10.80;99.90;;;;;;5356041;26;20350;-61
2024/04/13 03:39:09;;;;;;;3.67;2.40;;;10.80;99.90;;;;;;5363540;26;20232;-61
2024/04/13 03:41:37;;;;;;;3.33;2.33;;;10.80;99.90;;;;;;5363720;26;20232;-62
2024/04/13 03:44:05;;;;;;;4.07;2.23;;;10.70;99.90;;;;;;5356911;26;20699;-61
2024/04/13 03:46:34;;;;;;;4.30;2.40;;;10.60;99.90;;;;;;5355914;26;20241;-62
2024/04/13 03:48:59;;;;;;;6.13;2.50;;;10.50;99.90;;;;;;5361589;26;20613;-61
2024/04/13 03:51:28;;;;;;;3.97;2.20;;;10.40;99.90;;;;;;5363615;26;20236;-61
2024/04/13 03:53:53;;;;;;;5.83;2.40;;;10.20;99.90;;;;;;5359662;26;20232;-62
2024/04/13 03:56:22;;;;;;;4.97;2.40;;;10.10;99.90;;;;;;5355554;26;20305;-61
2024/04/13 03:58:47;;;;;;;4.77;2.40;;;10.00;99.90;;;;;;5357954;26;20276;-62
2024/04/13 04:01:18;;;;;;;4.03;2.23;;;10.00;99.90;;;;;;5363221;26;20240;-61
2024/04/13 04:03:44;;;;;;;4.37;2.53;;;10.10;99.90;;;;;;5362464;26;20748;-62
2024/04/13 04:06:13;;;;;;;3.23;2.23;;;10.10;99.90;;;;;;5355840;26;20233;-62
2024/04/13 04:08:40;;;;;;;4.13;2.00;;;10.00;99.90;;;;;;5356155;26;20237;-61
2024/04/13 04:11:08;;;;;;;6.27;2.67;;;10.10;99.90;;;;;;5362890;26;20737;-62
2024/04/13 04:13:34;;;;;;;4.27;2.77;;;10.10;99.90;;;;;;5362876;26;20232;-62
2024/04/13 04:16:02;;;;;;;5.47;2.60;;;10.00;99.90;;;;;;5357182;26;20610;-62
2024/04/13 04:18:31;;;;;;;2.90;2.13;;;10.10;99.90;;;;;;5355471;26;20264;-62
2024/04/13 04:20:59;;;;;;;6.63;2.70;;;10.20;99.90;;;;;;5359655;26;20237;-61
2024/04/13 04:23:25;;;;;;;3.20;2.37;;;10.20;99.90;;;;;;5361737;26;20328;-61
2024/04/13 04:25:53;;;;;;;3.97;2.40;;;10.20;99.90;;;;;;5360076;26;20309;-61
2024/04/13 04:28:19;;;;;;;3.50;2.50;;;10.20;99.90;;;;;;5355323;26;20233;-61
2024/04/13 04:30:48;;;;;;;4.80;2.53;;;10.20;99.90;;;;;;5356101;26;20291;-61
2024/04/13 04:33:13;;;;;;;5.73;2.70;;;10.30;99.90;;;;;;5363023;26;20324;-60
2024/04/13 04:35:44;;;;;;;5.50;3.63;;;10.20;99.90;;;;;;5363056;26;20236;-62
2024/04/13 04:38:12;;;;;;;3.97;3.00;;;10.20;99.90;;;;;;5332155;26;20232;-61
2024/04/13 04:40:41;;;;;;;5.87;2.80;;;10.20;99.90;;;;;;5362635;26;20244;-60
2024/04/13 04:43:06;;;;;;;3.80;2.87;;;10.20;99.90;;;;;;5355212;26;20265;-61
2024/04/13 04:45:36;;;;;;;4.80;2.83;;;10.30;99.90;;;;;;5355130;26;20284;-61
2024/04/13 04:48:03;;;;;;;5.77;2.50;;;10.30;99.90;;;;;;5361326;26;20605;-61
2024/04/13 04:50:31;;;;;;;7.70;3.07;;;10.40;99.90;;;;;;5362538;26;20274;-61
2024/04/13 04:53:01;;;;;;;4.70;2.80;;;10.40;99.90;;;;;;5358197;26;20240;-62
2024/04/13 04:55:30;;;;;;;5.33;3.03;;;10.50;99.90;;;;;;5355048;26;20237;-61
2024/04/13 04:57:56;;;;;;;3.50;3.00;;;10.50;99.90;;;;;;5359209;26;20311;-62
2024/04/13 05:00:24;;;;;;;6.10;2.80;;;10.50;99.90;;;;;;5362440;26;20232;-62
2024/04/13 05:02:50;;;;;;;4.97;2.97;;;10.60;99.90;;;;;;5360341;26;20236;-62
2024/04/13 05:05:18;;;;;;;4.80;3.10;;;10.70;99.90;;;;;;5355087;26;20307;-61
2024/04/13 05:07:45;;;;;;;5.33;3.10;;;10.80;99.90;;;;;;5355309;26;20241;-60
2024/04/13 05:10:16;;;;;;;6.13;2.87;;;10.80;99.90;;;;;;5362505;26;20236;-61
2024/04/13 05:12:42;;;;;;;5.20;3.00;;;10.90;99.90;;;;;;5362258;26;20565;-60
2024/04/13 05:15:10;;;;;;;7.63;2.80;;;11.00;99.90;;;;;;5354831;26;20241;-61
2024/04/13 05:17:36;;;;;;;7.90;3.33;;;11.00;99.90;;;;;;5355079;26;20279;-60
2024/04/13 05:20:05;;;;;;;10.53;3.50;;;10.90;99.90;;;;;;5360236;26;20241;-61
2024/04/13 05:22:31;;;;;;;13.87;3.37;;;10.90;99.90;;;;;;5362211;26;20236;-60
2024/04/13 05:24:59;;;;;;;16.80;3.20;;;11.00;99.90;;;;;;5358051;26;20240;-60
2024/04/13 05:27:27;;;;;;;7.73;3.17;;;11.00;99.90;;;;;;5354577;26;20233;-60
2024/04/13 05:29:56;;;;;;;13.93;3.60;;;11.20;99.90;;;;;;5357153;26;20237;-61
2024/04/13 05:32:22;;;;;;;10.03;2.80;;;11.30;99.90;;;;;;5362330;26;20232;-60
2024/04/13 05:34:50;;;;;;;4.67;2.87;;;11.30;99.90;;;;;;5360006;26;20282;-60
2024/04/13 05:37:16;;;;;;;9.77;3.30;;;11.50;99.90;;;;;;5354331;26;20700;-60
2024/04/13 05:39:45;;;;;;;7.70;3.17;;;11.60;99.90;;;;;;5354122;26;20284;-61
2024/04/13 05:42:11;;;;;;;5.07;2.87;;;11.80;99.90;;;;;;5308035;26;20297;-60
2024/04/13 05:44:42;;;;;;;6.03;2.83;;;12.00;99.90;;;;;;5354351;26;20249;-60
2024/04/13 05:47:08;;;;;;;8.87;2.80;;;12.30;99.90;;;;;;5362186;26;20274;-61
2024/04/13 05:49:37;;;;;;;6.27;2.50;;;12.60;99.90;;;;;;5361703;26;20287;-61
2024/04/13 05:52:03;;;;;;;5.10;2.90;;;13.00;99.90;;;;;;5356615;26;20252;-59
2024/04/13 05:54:32;;;;;;;13.23;3.23;;;13.40;99.90;;;;;;5354697;26;20245;-59
2024/04/13 05:56:57;;;;;;;21.00;3.53;;;14.30;99.90;;;;;;5358338;26;20262;-60
2024/04/13 05:59:26;;;;;;;5.03;2.70;;;15.90;99.90;;;;;;5361632;26;20278;-59
2024/04/13 06:01:54;;;;;;;7.60;2.88;;;17.60;99.90;;;;;;5359740;26;20270;-61
2024/04/13 06:04:23;;;;;;;4.85;2.60;;;19.10;99.90;;;;;;5354221;26;20276;-61
2024/04/13 06:06:50;;;;;;;7.35;2.60;;;20.60;99.90;;;;;;5355706;26;20707;-60
2024/04/13 06:09:18;;;;;;;6.53;2.50;;;21.90;98.60;;;;;;5361521;26;20591;-61
2024/04/13 06:11:44;;;;;;;8.80;2.55;;;23.00;95.90;;;;;;5361648;26;20232;-61
2024/04/13 06:14:12;;;;;;;5.20;2.70;;;24.00;93.50;;;;;;5354234;26;20279;-61
2024/04/13 06:16:38;;;;;;;5.75;2.30;;;24.90;91.40;;;;;;5354356;26;20243;-58
2024/04/13 06:19:13;;;;;;;4.65;2.22;;;25.60;89.10;;;;;;5359612;26;20245;-59
2024/04/13 06:21:38;;;;;;;7.85;2.55;;;26.20;86.90;;;;;;5361631;26;20286;-59
2024/04/13 06:24:07;;;;;;;6.00;2.90;;;27.00;83.70;;;;;;5355419;26;20345;-60
2024/04/13 06:26:34;;;;;;;7.43;3.28;;;27.80;80.70;;;;;;5353811;26;20249;-59
2024/04/13 06:29:03;;;;;;;4.55;2.60;;;28.50;77.50;;;;;;5357822;26;20272;-60
2024/04/13 06:31:29;;;;;;;4.68;2.60;;;29.10;76.10;;;;;;5361252;26;20224;-58
2024/04/13 06:33:58;;;;;;;9.57;2.88;;;29.60;73.30;;;;;;5357848;26;20235;-60
2024/04/13 06:36:26;;;;;;;4.60;2.47;;;29.70;71.30;;;;;;5353747;26;20376;-58
2024/04/13 06:38:54;;;;;;;6.45;2.40;;;29.60;70.40;;;;;;5355709;26;20233;-59
2024/04/13 06:41:20;;;;;;;6.40;2.22;;;29.50;69.20;;;;;;5361197;26;20236;-59
2024/04/13 06:43:49;;;;;;;5.35;2.88;;;29.40;69.40;;;;;;5360902;26;20270;-59
2024/04/13 06:46:14;;;;;;;7.28;2.45;;;29.30;69.30;;;;;;5353623;26;20283;-59
2024/04/13 06:48:43;;;;;;;3.67;2.65;;;29.50;68.70;;;;;;5356889;26;20715;-60
2024/04/13 06:51:08;;;;;;;10.07;3.15;;;30.10;67.70;;;;;;5363537;26;20232;-59
2024/04/13 06:53:40;;;;;;;28.42;4.32;;;31.00;65.80;;;;;;5364561;26;20239;-61
2024/04/13 06:56:06;;;;;;;11.07;2.67;;;31.90;63.40;;;;;;5358441;26;20299;-59
2024/04/13 06:58:34;;;;;;;5.45;2.60;;;32.70;61.00;;;;;;5357289;26;20719;-59
2024/04/13 07:01:00;;;;;;;5.22;2.83;;;33.10;59.60;;;;;;5360380;26;20237;-60
2024/04/13 07:03:28;;;;;;;6.43;2.92;;;33.30;58.80;;;;;;5364409;26;20319;-59
2024/04/13 07:05:56;;;;;;;5.28;3.40;;;33.40;58.10;;;;;;5361425;26;20236;-62
2024/04/13 07:08:24;;;;;;;8.40;3.28;;;32.80;58.20;;;;;;5356542;26;20267;-60
2024/04/13 07:10:53;;;;;;;6.03;3.03;;;31.50;59.40;;;;;;5356828;26;20233;-59
2024/04/13 07:13:22;;;;;;;8.55;3.20;;;30.00;61.70;;;;;;5363740;26;20236;-59
2024/04/13 07:15:48;;;;;;;14.00;3.50;;;28.80;64.00;;;;;;5363550;26;20661;-59
2024/04/13 07:18:18;;;;;;;5.93;3.05;;;27.80;66.30;;;;;;5356172;26;20259;-58
2024/04/13 07:20:44;;;;;;;4.45;2.38;;;28.00;66.90;;;;;;5356142;26;20578;-59
2024/04/13 07:23:12;;;;;;;4.35;2.70;;;28.70;65.50;;;;;;5363021;26;20236;-58
2024/04/13 07:25:38;;;;;;;4.80;2.92;;;29.50;64.60;;;;;;5363906;26;20240;-59
2024/04/13 07:28:09;;;;;;;7.72;4.30;;;30.70;62.60;;;;;;5358512;26;20274;-61
2024/04/13 07:30:35;;;;;;;4.72;2.83;;;31.90;59.70;;;;;;5356576;26;20268;-61
2024/04/13 07:33:03;;;;;;;4.07;2.20;;;32.90;58.00;;;;;;5360036;26;20241;-61
2024/04/13 07:35:29;;;;;;;5.40;2.72;;;33.90;56.80;;;;;;5363103;26;20244;-60
2024/04/13 07:37:57;;;;;;;5.00;2.42;;;34.60;55.80;;;;;;5360548;26;20279;-61
2024/04/13 07:40:26;;;;;;;14.90;9.85;;;35.30;54.60;;;;;;5355237;26;20646;-61
2024/04/13 07:42:52;;;;;;;4.88;2.58;;;35.90;53.60;;;;;;5356482;26;20237;-61
2024/04/13 07:45:23;;;;;;;3.63;2.45;;;36.50;52.00;;;;;;5363510;26;20312;-60
2024/04/13 07:47:48;;;;;;;3.63;2.40;;;37.00;51.00;;;;;;5362621;26;20236;-60
2024/04/13 07:50:17;;;;;;;4.07;2.50;;;37.20;50.20;;;;;;5355345;26;20280;-61
2024/04/13 07:52:43;;;;;;;5.57;2.75;;;37.20;50.40;;;;;;5355247;26;20241;-61
2024/04/13 07:55:11;;;;;;;5.55;2.50;;;37.30;49.80;;;;;;5361874;26;20255;-61
2024/04/13 07:57:37;;;;;;;7.95;2.70;;;36.70;49.90;;;;;;5363520;26;20843;-61
2024/04/13 08:00:09;;;;;;;6.55;2.50;;;35.40;51.20;;;;;;5358025;26;20240;-61
2024/04/13 08:02:38;;;;;;;7.25;2.67;;;34.40;52.70;;;;;;5355600;26;20284;-60
2024/04/13 08:05:07;;;;;;;6.82;2.88;;;34.40;52.60;;;;;;5359862;26;20265;-62
2024/04/13 08:07:33;;;;;;;4.63;2.40;;;34.60;51.70;;;;;;5363182;26;20240;-61
2024/04/13 08:10:01;;;;;;;4.97;2.78;;;34.20;52.50;;;;;;5359384;26;20240;-62
2024/04/13 08:12:32;;;;;;;11.27;10.07;;;34.00;52.50;;;;;;5355417;26;20249;-61
2024/04/13 08:14:57;;;;;;;4.68;2.38;;;33.60;54.70;;;;;;5358091;26;20237;-62
2024/04/13 08:17:27;;;;;;;3.85;2.50;;;33.00;54.00;;;;;;5363271;26;20270;-62
2024/04/13 08:19:55;;;;;;;7.32;2.95;;;31.60;56.20;;;;;;5361309;26;20745;-61
2024/04/13 08:22:23;;;;;;;6.60;2.95;;;30.40;57.50;;;;;;5355469;26;20272;-61
2024/04/13 08:24:51;;;;;;;8.45;2.80;;;29.30;59.40;;;;;;5355216;26;20632;-61
2024/04/13 08:27:19;;;;;;;5.93;2.72;;;28.00;63.10;;;;;;5362587;26;20274;-61
2024/04/13 08:29:48;;;;;;;5.35;2.60;;;26.80;66.20;;;;;;5362400;26;20236;-60
2024/04/13 08:32:16;;;;;;;5.40;2.85;;;25.50;69.30;;;;;;5354840;26;20241;-58
2024/04/13 08:34:42;;;;;;;4.97;2.65;;;24.70;71.50;;;;;;5354973;26;20233;-63
2024/04/13 08:37:13;;;;;;;14.07;3.55;;;24.10;73.20;;;;;;5353344;26;20711;-61
2024/04/13 08:39:40;;;;;;;5.25;2.30;;;24.00;74.00;;;;;;5360054;26;20236;-62
2024/04/13 08:42:10;;;;;;;5.03;2.63;;;23.80;74.70;;;;;;5356640;26;20236;-62
2024/04/13 08:44:38;;;;;;;4.55;2.70;;;23.50;75.80;;;;;;5354361;26;20237;-61
2024/04/13 08:47:08;;;;;;;6.82;2.72;;;23.10;76.40;;;;;;5359204;26;20245;-61
2024/04/13 08:49:36;;;;;;;6.30;3.05;;;22.80;78.70;;;;;;5362072;26;20263;-61
2024/04/13 08:52:07;;;;;;;5.70;2.47;;;22.60;79.50;;;;;;5357992;26;20729;-62
2024/04/13 08:54:37;;;;;;;5.68;2.60;;;22.50;80.00;;;;;;5354664;26;20233;-61
2024/04/13 08:57:08;;;;;;;8.85;2.50;;;22.50;79.90;;;;;;5358591;26;20821;-61
2024/04/13 08:59:35;;;;;;;5.10;2.47;;;22.50;80.40;;;;;;5361814;26;20228;-62
2024/04/13 09:02:04;;;;;;;3.45;2.00;;;22.40;80.90;;;;;;5358570;26;20262;-61
2024/04/13 09:04:32;;;;;;;6.32;3.00;;;22.40;80.90;;;;;;5354469;26;20236;-62
2024/04/13 09:07:00;;;;;;;4.38;2.30;;;22.50;81.50;;;;;;5356525;26;20274;-61
2024/04/13 09:09:26;;;;;;;3.88;2.88;;;22.60;80.90;;;;;;5360595;26;20232;-63
2024/04/13 09:11:57;;;;;;;4.18;2.50;;;22.60;81.60;;;;;;5361204;26;20236;-62
2024/04/13 09:14:26;;;;;;;5.88;2.42;;;22.40;82.30;;;;;;5353207;26;20276;-61
2024/04/13 09:16:54;;;;;;;6.13;2.78;;;22.20;82.80;;;;;;5354826;26;20245;-61
2024/04/13 09:19:20;;;;;;;3.72;2.05;;;22.10;83.70;;;;;;5361534;26;20236;-62
2024/04/13 09:21:49;;;;;;;4.45;2.15;;;21.90;84.10;;;;;;5362078;26;20718;-61
2024/04/13 09:24:15;;;;;;;5.40;2.30;;;21.90;84.50;;;;;;5353990;26;20347;-62
2024/04/13 09:26:44;;;;;;;3.08;2.10;;;21.90;85.20;;;;;;5354537;26;20706;-61
2024/04/13 09:29:23;;;;;;;4.72;2.20;;;22.00;84.80;;;;;;5359977;26;20631;-60
2024/04/13 09:31:52;;;;;;;4.10;2.00;;;22.00;85.80;;;;;;5346252;26;20679;-63
2024/04/13 09:34:17;;;;;;;6.43;2.33;;;22.10;85.30;;;;;;5307564;26;20241;-61
2024/04/13 09:36:46;;;;;;;4.30;2.17;;;22.40;85.20;;;;;;5375595;26;20274;-61
2024/04/13 09:39:19;;;;;;;4.70;2.08;;;22.60;84.90;;;;;;5354032;26;20710;-62
2024/04/13 09:41:48;;;;;;;3.90;1.95;;;22.80;84.40;;;;;;5337216;26;20246;-62
2024/04/13 09:44:26;;;;;;;6.50;2.30;;;23.00;83.90;;;;;;5347914;26;20393;-63
2024/04/13 09:46:55;;;;;;;4.70;2.33;;;23.10;84.70;;;;;;5334435;26;20233;-61
2024/04/13 09:49:20;;;;;;;4.50;1.98;;;23.10;84.60;;;;;;5334640;26;20233;-62
2024/04/13 09:51:50;;;;;;;6.50;2.38;;;23.00;84.50;;;;;;5335111;26;20618;-63
2024/04/13 09:54:16;;;;;;;7.22;2.00;;;23.10;84.00;;;;;;5334567;26;20626;-63
2024/04/13 09:56:47;;;;;;;6.03;2.35;;;23.20;83.60;;;;;;5346593;26;20344;-64
2024/04/13 09:59:13;;;;;;;6.10;2.20;;;23.30;83.20;;;;;;5356680;26;20232;-63
2024/04/13 10:01:44;;;;;;;4.43;2.03;;;23.50;83.00;;;;;;5361120;26;20713;-63
2024/04/13 10:04:10;;;;;;;3.40;2.10;;;23.70;82.30;;;;;;5355534;26;20308;-63
2024/04/13 10:06:40;;;;;;;6.95;2.17;;;23.90;82.00;;;;;;5353545;26;20241;-63
2024/04/13 10:09:08;;;;;;;4.28;1.90;;;24.00;81.80;;;;;;5356979;26;20234;-62
2024/04/13 10:11:43;;;;;;;3.47;1.90;;;24.10;81.20;;;;;;5361192;26;20236;-62
2024/04/13 10:14:10;;;;;;;3.33;1.88;;;24.30;81.10;;;;;;5356136;26;20565;-63
2024/04/13 10:16:39;;;;;;;2.70;1.67;;;24.30;81.30;;;;;;5352693;26;20237;-63
2024/04/13 10:19:09;;;;;;;6.25;1.50;;;24.50;81.00;;;;;;5357141;26;20242;-62
2024/04/13 10:21:38;;;;;;;3.10;1.60;;;24.70;80.00;;;;;;5360026;26;20263;-62
2024/04/13 10:24:04;;;;;;;6.45;1.80;;;24.90;79.80;;;;;;5357962;26;20231;-62
2024/04/13 10:26:33;;;;;;;3.25;1.50;;;25.10;79.50;;;;;;5353793;26;20593;-65
2024/04/13 10:28:59;;;;;;;9.45;3.83;;;25.20;77.30;;;;;;5355211;26;20279;-62
2024/04/13 10:31:29;;;;;;;3.33;1.73;;;25.00;77.50;;;;;;5361653;26;20282;-62
2024/04/13 10:33:56;;;;;;;3.25;1.85;;;25.00;77.70;;;;;;5360642;26;20625;-63
2024/04/13 10:36:32;;;;;;;2.97;1.73;;;25.10;77.80;;;;;;5353833;26;20253;-65
2024/04/13 10:38:59;;;;;;;5.03;2.10;;;25.30;78.00;;;;;;5354522;26;20345;-61
2024/04/13 10:41:32;;;;;;;3.05;1.80;;;25.60;78.10;;;;;;5361061;26;20248;-60
2024/04/13 10:43:59;;;;;;;2.20;1.60;;;25.70;77.10;;;;;;5358906;26;20678;-61
2024/04/13 10:46:27;;;;;;;5.28;2.08;;;25.60;76.90;;;;;;5353620;26;20651;-61
2024/04/13 10:48:53;;;;;;;4.53;1.60;;;25.60;76.90;;;;;;5352949;26;20727;-61
2024/04/13 10:51:22;;;;;;;3.60;1.40;;;25.60;76.70;;;;;;5360077;26;20266;-62
2024/04/13 10:53:51;;;;;;;3.72;1.60;;;25.50;77.60;;;;;;5360589;26;20235;-62
2024/04/13 10:56:19;;;;;;;2.95;1.52;;;25.50;77.80;;;;;;5353056;26;20237;-62
2024/04/13 10:58:49;;;;;;;3.13;1.63;;;25.50;77.10;;;;;;5353113;26;20233;-62
2024/04/13 11:01:17;;;;;;;3.70;1.55;;;25.60;77.50;;;;;;5359314;26;20678;-61
2024/04/13 11:03:43;;;;;;;5.28;1.52;;;25.40;76.60;;;;;;5360928;26;20274;-61
2024/04/13 11:06:12;;;;;;;3.47;1.45;;;25.10;78.00;;;;;;5355724;26;20573;-61
2024/04/13 11:08:38;;;;;;;5.85;1.67;;;24.90;78.00;;;;;;5352968;26;20279;-61
2024/04/13 11:11:13;;;;;;;2.80;1.50;;;24.80;78.70;;;;;;5355629;26;20237;-62
2024/04/13 11:13:39;;;;;;;3.28;1.80;;;24.80;79.20;;;;;;5360317;26;20231;-61
2024/04/13 11:16:08;;;;;;;2.67;1.70;;;24.80;80.00;;;;;;5356556;26;20240;-62
2024/04/13 11:18:34;;;;;;;3.42;1.60;;;24.90;80.60;;;;;;5351986;26;20238;-62
2024/04/13 11:21:05;;;;;;;4.70;1.50;;;25.00;79.30;;;;;;5353123;26;20280;-62
2024/04/13 11:23:32;;;;;;;6.78;2.03;;;25.00;79.10;;;;;;5360085;26;20564;-61
2024/04/13 11:26:00;;;;;;;3.22;1.48;;;25.10;79.10;;;;;;5358748;26;20240;-62
2024/04/13 11:28:29;;;;;;;6.35;1.88;;;25.20;79.50;;;;;;5351946;26;20233;-61
2024/04/13 11:30:57;;;;;;;4.97;1.60;;;25.30;77.10;;;;;;5351282;26;20279;-62
2024/04/13 11:33:24;;;;;;;3.47;1.67;;;25.30;77.00;;;;;;5360938;26;20651;-61
2024/04/13 11:35:57;;;;;;;3.47;1.65;;;25.50;76.70;;;;;;5362733;26;20282;-62
2024/04/13 11:38:24;;;;;;;2.30;1.33;;;25.70;76.60;;;;;;5308776;26;20757;-60
2024/04/13 11:40:52;;;;;;;2.70;1.55;;;26.00;76.10;;;;;;5354938;26;20241;-61
2024/04/13 11:43:18;;;;;;;4.68;1.85;;;26.10;75.20;;;;;;5362456;26;20232;-61
2024/04/13 11:45:50;;;;;;;3.88;2.15;;;26.30;73.70;;;;;;5363332;26;20273;-61
2024/04/13 11:48:15;;;;;;;4.68;1.58;;;26.60;73.60;;;;;;5357156;26;20237;-61
2024/04/13 11:50:44;;;;;;;2.22;1.05;;;26.60;73.50;;;;;;5355472;26;20578;-60
2024/04/13 11:53:09;;;;;;;3.67;1.83;;;26.50;73.00;;;;;;5359863;26;20237;-60
2024/04/13 11:55:38;;;;;;;3.92;1.60;;;26.70;73.40;;;;;;5362601;26;20803;-62
2024/04/13 11:58:04;;;;;;;2.75;1.40;;;26.80;73.70;;;;;;5360476;26;20543;-62
2024/04/13 12:00:33;;;;;;;6.53;2.83;;;27.00;73.10;;;;;;5355180;26;20276;-61
2024/04/13 12:03:04;;;;;;;3.83;1.70;;;27.20;72.60;;;;;;5356769;26;20237;-64
2024/04/13 12:05:29;;;;;;;3.13;1.40;;;27.40;72.60;;;;;;5362965;26;20702;-65
2024/04/13 12:07:58;;;;;;;5.60;1.80;;;27.70;71.50;;;;;;5363063;26;20278;-63
2024/04/13 12:10:23;;;;;;;4.00;1.60;;;27.80;70.70;;;;;;5355253;26;20234;-64
2024/04/13 12:12:52;;;;;;;3.70;1.52;;;27.90;70.20;;;;;;5355368;26;20739;-64
2024/04/13 12:15:17;;;;;;;3.47;1.65;;;28.00;69.70;;;;;;5362712;26;20236;-62
2024/04/13 12:17:46;;;;;;;3.97;1.40;;;28.00;69.90;;;;;;5363186;26;20610;-65
2024/04/13 12:20:14;;;;;;;2.92;1.70;;;28.00;70.30;;;;;;5357302;26;20232;-64
2024/04/13 12:22:42;;;;;;;3.97;1.80;;;28.00;70.00;;;;;;5355081;26;20237;-64
2024/04/13 12:25:08;;;;;;;4.70;1.50;;;28.10;69.90;;;;;;5358885;26;20237;-65
2024/04/13 12:27:37;;;;;;;4.90;2.10;;;28.20;69.70;;;;;;5362923;26;20324;-66
2024/04/13 12:30:03;;;;;;;3.15;1.50;;;28.10;70.40;;;;;;5360070;26;20799;-64
2024/04/13 12:32:32;;;;;;;3.38;1.58;;;27.90;70.80;;;;;;5354899;26;20366;-64
2024/04/13 12:34:57;;;;;;;3.58;1.52;;;27.80;70.80;;;;;;5355323;26;20582;-64
2024/04/13 12:37:28;;;;;;;4.00;1.75;;;27.90;70.80;;;;;;5362556;26;20236;-64
2024/04/13 12:39:54;;;;;;;4.45;1.73;;;27.90;70.80;;;;;;5362307;26;20579;-64
2024/04/13 12:42:23;;;;;;;3.80;1.60;;;27.90;70.10;;;;;;5354860;26;20279;-64
2024/04/13 12:44:49;;;;;;;3.25;1.50;;;27.70;70.50;;;;;;5353648;26;20241;-62
2024/04/13 12:47:18;;;;;;;2.90;1.40;;;27.70;70.60;;;;;;5360556;26;20271;-63
2024/04/13 12:49:44;;;;;;;2.88;1.40;;;27.80;70.80;;;;;;5361804;26;20574;-64